Time;durP1;ratioP1;P1;durP2;ratioP2;P2;SDS_P1;SDS_P2;PMS_P1;PMS_P2;Temp;Humidity;BMP_temperature;BMP_pressure;BME280_temperature;BME280_humidity;BME280_pressure;Samples;Min_cycle;Max_cycle;Signal;HPM_P1;HPM_P2
2023/06/26 00:00:05;;;;;;;1.93;1.60;;;;;;;;;;5062915;27;87629;-49
2023/06/26 00:02:34;;;;;;;4.37;1.90;;;;;;;;;;5066967;27;89918;-49
2023/06/26 00:05:04;;;;;;;2.50;1.70;;;;;;;;;;5070315;27;87487;-49
2023/06/26 00:07:33;;;;;;;2.27;1.97;;;;;;;;;;5081490;27;88976;-49
2023/06/26 00:10:03;;;;;;;4.37;1.60;;;;;;;;;;5081353;27;87655;-49
2023/06/26 00:12:31;;;;;;;1.30;1.20;;;;;;;;;;5081795;27;88713;-49
2023/06/26 00:14:59;;;;;;;2.37;1.57;;;;;;;;;;5073475;27;88138;-49
2023/06/26 00:17:28;;;;;;;3.03;2.00;;;;;;;;;;5062174;27;89628;-49
2023/06/26 00:19:56;;;;;;;2.60;1.73;;;;;;;;;;5060828;27;87985;-49
2023/06/26 00:22:26;;;;;;;2.63;1.70;;;;;;;;;;5071654;27;90059;-49
2023/06/26 00:24:54;;;;;;;3.93;1.90;;;;;;;;;;5080240;27;88216;-49
2023/06/26 00:27:23;;;;;;;2.47;1.90;;;;;;;;;;5081611;27;88989;-49
2023/06/26 00:29:52;;;;;;;3.07;1.80;;;;;;;;;;5081750;27;87662;-49
2023/06/26 00:32:21;;;;;;;5.17;2.37;;;;;;;;;;5070533;27;87990;-49
2023/06/26 00:34:49;;;;;;;2.97;2.00;;;;;;;;;;5060721;27;88992;-49
2023/06/26 00:37:18;;;;;;;3.33;2.03;;;;;;;;;;5068050;27;87805;-49
2023/06/26 00:39:47;;;;;;;4.03;1.77;;;;;;;;;;5081310;27;87635;-49
2023/06/26 00:42:16;;;;;;;4.30;2.07;;;;;;;;;;5073029;27;89913;-49
2023/06/26 00:44:44;;;;;;;3.30;2.20;;;;;;;;;;5060185;27;87939;-56
2023/06/26 00:47:13;;;;;;;3.63;1.73;;;;;;;;;;5067139;27;89891;-55
2023/06/26 00:49:41;;;;;;;3.57;2.17;;;;;;;;;;5066781;27;87759;-49
2023/06/26 00:52:10;;;;;;;2.63;2.03;;;;;;;;;;5071348;27;88778;-55
2023/06/26 00:54:38;;;;;;;2.77;2.13;;;;;;;;;;5076307;27;89214;-49
2023/06/26 00:57:08;;;;;;;4.43;1.93;;;;;;;;;;5080508;27;87875;-49
2023/06/26 00:59:36;;;;;;;2.93;1.93;;;;;;;;;;5102154;27;87450;-49
2023/06/26 01:02:05;;;;;;;3.53;2.20;;;;;;;;;;5099945;27;89684;-49
2023/06/26 01:04:33;;;;;;;2.90;1.97;;;;;;;;;;5099691;27;89209;-49
2023/06/26 01:07:02;;;;;;;3.00;1.93;;;;;;;;;;5083593;27;88983;-49
2023/06/26 01:09:30;;;;;;;3.63;2.23;;;;;;;;;;5084250;27;87724;-49
2023/06/26 01:11:59;;;;;;;6.90;2.27;;;;;;;;;;5084061;27;89470;-49
2023/06/26 01:14:28;;;;;;;3.80;2.20;;;;;;;;;;5084739;27;89363;-49
2023/06/26 01:16:57;;;;;;;5.47;1.87;;;;;;;;;;5077828;27;89013;-49
2023/06/26 01:19:26;;;;;;;4.93;2.53;;;;;;;;;;5065958;27;87618;-49
2023/06/26 01:21:57;;;;;;;2.40;2.07;;;;;;;;;;5063621;27;88603;-49
2023/06/26 01:24:27;;;;;;;3.23;1.87;;;;;;;;;;5063533;27;88097;-49
2023/06/26 01:26:57;;;;;;;3.30;1.90;;;;;;;;;;5064236;27;88861;-50
2023/06/26 01:29:25;;;;;;;6.83;2.40;;;;;;;;;;5083542;27;87722;-49
2023/06/26 01:31:54;;;;;;;3.53;2.13;;;;;;;;;;5085392;27;89717;-49
2023/06/26 01:34:22;;;;;;;3.33;2.00;;;;;;;;;;5075989;27;89938;-49
2023/06/26 01:36:51;;;;;;;5.03;2.70;;;;;;;;;;5063530;27;89769;-49
2023/06/26 01:39:20;;;;;;;3.23;2.30;;;;;;;;;;5081516;27;87542;-49
2023/06/26 01:41:48;;;;;;;4.20;2.07;;;;;;;;;;5084020;27;87407;-49
2023/06/26 01:44:20;;;;;;;4.80;2.60;;;;;;;;;;5072814;27;89092;-49
2023/06/26 01:46:51;;;;;;;2.73;1.87;;;;;;;;;;5072232;27;89079;-49
2023/06/26 01:49:21;;;;;;;6.10;2.13;;;;;;;;;;5084220;27;87647;-50
2023/06/26 01:51:53;;;;;;;3.23;1.83;;;;;;;;;;5069671;27;89822;-49
2023/06/26 01:54:22;;;;;;;3.23;1.70;;;;;;;;;;5063328;27;88237;-49
2023/06/26 01:56:50;;;;;;;4.97;2.40;;;;;;;;;;5063307;27;88995;-49
2023/06/26 01:59:20;;;;;;;3.67;1.90;;;;;;;;;;5077660;27;87938;-49
2023/06/26 02:01:48;;;;;;;2.13;1.70;;;;;;;;;;5067262;27;88668;-49
2023/06/26 02:04:17;;;;;;;3.63;1.73;;;;;;;;;;5076926;27;89289;-56
2023/06/26 02:06:46;;;;;;;7.27;1.70;;;;;;;;;;5065625;27;87797;-49
2023/06/26 02:09:14;;;;;;;6.60;1.93;;;;;;;;;;5075385;27;87672;-49
2023/06/26 02:11:43;;;;;;;2.63;1.57;;;;;;;;;;5068566;27;88588;-49
2023/06/26 02:14:12;;;;;;;3.47;1.47;;;;;;;;;;5075259;27;87984;-49
2023/06/26 02:16:42;;;;;;;2.07;1.37;;;;;;;;;;5083954;27;87983;-49
2023/06/26 02:19:10;;;;;;;5.90;1.73;;;;;;;;;;5079039;27;87652;-49
2023/06/26 02:21:38;;;;;;;2.90;1.40;;;;;;;;;;5068004;27;89858;-49
2023/06/26 02:24:07;;;;;;;4.13;1.30;;;;;;;;;;5072366;27;88047;-49
2023/06/26 02:26:35;;;;;;;5.17;1.13;;;;;;;;;;5083453;27;89892;-49
2023/06/26 02:29:04;;;;;;;2.20;1.13;;;;;;;;;;5075650;27;87356;-49
2023/06/26 02:31:32;;;;;;;3.20;1.37;;;;;;;;;;5062624;27;88580;-49
2023/06/26 02:34:02;;;;;;;4.50;1.10;;;;;;;;;;5062568;27;89137;-49
2023/06/26 02:36:30;;;;;;;4.10;1.47;;;;;;;;;;5061732;27;88921;-49
2023/06/26 02:38:59;;;;;;;6.93;1.30;;;;;;;;;;5068213;27;87566;-49
2023/06/26 02:41:27;;;;;;;3.17;1.40;;;;;;;;;;5081002;27;88669;-49
2023/06/26 02:43:56;;;;;;;3.93;1.40;;;;;;;;;;5081101;27;89196;-49
2023/06/26 02:46:24;;;;;;;7.43;1.57;;;;;;;;;;5080601;27;88822;-49
2023/06/26 02:48:52;;;;;;;3.27;1.30;;;;;;;;;;5080779;27;87988;-49
2023/06/26 02:51:22;;;;;;;5.63;1.60;;;;;;;;;;5089487;27;89724;-49
2023/06/26 02:53:50;;;;;;;1.77;1.27;;;;;;;;;;5100063;27;88425;-50
2023/06/26 02:56:19;;;;;;;3.57;1.20;;;;;;;;;;5102242;27;89009;-49
2023/06/26 02:58:47;;;;;;;2.93;1.97;;;;;;;;;;5102456;27;87263;-49
2023/06/26 03:01:16;;;;;;;3.27;1.47;;;;;;;;;;5102387;27;89696;-49
2023/06/26 03:03:46;;;;;;;3.37;1.30;;;;;;;;;;5092950;27;87840;-49
2023/06/26 03:06:15;;;;;;;3.43;1.93;;;;;;;;;;5095021;27;88995;-49
2023/06/26 03:08:45;;;;;;;3.27;1.40;;;;;;;;;;5079908;27;87972;-49
2023/06/26 03:11:13;;;;;;;4.60;1.53;;;;;;;;;;5079543;27;89700;-49
2023/06/26 03:13:42;;;;;;;4.23;1.90;;;;;;;;;;5078893;27;90035;-49
2023/06/26 03:16:10;;;;;;;5.37;2.43;;;;;;;;;;5086392;27;89926;-49
2023/06/26 03:18:39;;;;;;;4.90;1.93;;;;;;;;;;5059303;27;87699;-49
2023/06/26 03:21:08;;;;;;;2.87;1.37;;;;;;;;;;5062514;27;89707;-49
2023/06/26 03:23:40;;;;;;;3.47;1.90;;;;;;;;;;5096716;27;89224;-49
2023/06/26 03:26:10;;;;;;;5.77;2.03;;;;;;;;;;5078534;27;88892;-49
2023/06/26 03:28:38;;;;;;;2.77;1.80;;;;;;;;;;5079072;27;87556;-49
2023/06/26 03:31:07;;;;;;;4.83;2.20;;;;;;;;;;5079135;27;90190;-49
2023/06/26 03:33:35;;;;;;;2.70;1.70;;;;;;;;;;5078765;27;88045;-49
2023/06/26 03:36:04;;;;;;;4.33;1.80;;;;;;;;;;5079080;27;88851;-49
2023/06/26 03:38:32;;;;;;;3.40;1.53;;;;;;;;;;5082451;27;88626;-49
2023/06/26 03:41:01;;;;;;;7.97;1.70;;;;;;;;;;5078978;27;88586;-49
2023/06/26 03:43:30;;;;;;;4.40;1.47;;;;;;;;;;5079072;27;87539;-49
2023/06/26 03:45:59;;;;;;;3.30;1.60;;;;;;;;;;5079279;27;87589;-49
2023/06/26 03:48:27;;;;;;;2.50;1.60;;;;;;;;;;5087496;27;87692;-50
2023/06/26 03:50:56;;;;;;;4.77;1.70;;;;;;;;;;5082481;27;88611;-49
2023/06/26 03:53:24;;;;;;;3.67;1.33;;;;;;;;;;5079558;27;89147;-49
2023/06/26 03:55:53;;;;;;;3.47;1.60;;;;;;;;;;5079139;27;88032;-53
2023/06/26 03:58:21;;;;;;;4.17;1.67;;;;;;;;;;5074073;27;87631;-49
2023/06/26 04:00:51;;;;;;;2.73;1.30;;;;;;;;;;5077156;27;88581;-50
2023/06/26 04:03:19;;;;;;;2.87;1.60;;;;;;;;;;5077867;27;89819;-49
2023/06/26 04:05:48;;;;;;;3.67;1.37;;;;;;;;;;5079260;27;90148;-49
2023/06/26 04:08:16;;;;;;;1.60;1.30;;;;;;;;;;5077694;27;87652;-49
2023/06/26 04:10:45;;;;;;;3.57;1.00;;;;;;;;;;5085194;27;88655;-49
2023/06/26 04:13:14;;;;;;;3.50;1.30;;;;;;;;;;5085434;27;87991;-49
2023/06/26 04:15:42;;;;;;;5.27;1.43;;;;;;;;;;5081590;27;89057;-49
2023/06/26 04:18:12;;;;;;;2.73;1.13;;;;;;;;;;5083401;27;87471;-49
2023/06/26 04:20:40;;;;;;;9.47;1.40;;;;;;;;;;5093262;27;89760;-49
2023/06/26 04:23:09;;;;;;;2.03;1.10;;;;;;;;;;5081393;27;88237;-49
2023/06/26 04:25:37;;;;;;;3.77;1.20;;;;;;;;;;5081467;27;88894;-49
2023/06/26 04:28:06;;;;;;;1.80;1.00;;;;;;;;;;5099100;27;87794;-49
2023/06/26 04:30:34;;;;;;;3.27;1.17;;;;;;;;;;5099842;27;89641;-49
2023/06/26 04:33:03;;;;;;;1.70;0.97;;;;;;;;;;5087460;27;88771;-49
2023/06/26 04:35:36;;;;;;;4.70;1.23;;;;;;;;;;5082284;27;88838;-49
2023/06/26 04:38:05;;;;;;;4.17;1.17;;;;;;;;;;5081700;27;87576;-49
2023/06/26 04:40:33;;;;;;;1.30;0.87;;;;;;;;;;5094071;27;87577;-49
2023/06/26 04:43:01;;;;;;;1.00;0.90;;;;;;;;;;5105377;27;88096;-49
2023/06/26 04:45:30;;;;;;;1.27;0.82;;;;;;;;;;5104550;27;89211;-49
2023/06/26 04:48:00;;;;;;;1.85;0.93;;;;;;;;;;5105587;27;87453;-49
2023/06/26 04:50:30;;;;;;;1.77;0.77;;;;;;;;;;5087514;27;88584;-49
2023/06/26 04:53:00;;;;;;;2.33;1.02;;;;;;;;;;5085492;27;89006;-50
2023/06/26 04:55:30;;;;;;;1.83;1.17;;;;;;;;;;5101581;27;89733;-49
2023/06/26 04:57:59;;;;;;;3.95;1.05;;;;;;;;;;5105013;27;87717;-49
2023/06/26 05:00:28;;;;;;;1.77;0.88;;;;;;;;;;5104071;27;89638;-49
2023/06/26 05:03:00;;;;;;;1.13;0.80;;;;;;;;;;5101042;27;88052;-49
2023/06/26 05:05:29;;;;;;;2.67;0.80;;;;;;;;;;5080715;27;88876;-49
2023/06/26 05:07:58;;;;;;;1.07;0.70;;;;;;;;;;5099329;27;87512;-49
2023/06/26 05:10:28;;;;;;;2.80;1.00;;;;;;;;;;5100612;27;88742;-49
2023/06/26 05:12:56;;;;;;;1.97;1.33;;;;;;;;;;5084343;27;89121;-49
2023/06/26 05:15:25;;;;;;;1.07;0.77;;;;;;;;;;5084028;27;88850;-49
2023/06/26 05:17:54;;;;;;;0.93;0.70;;;;;;;;;;5084034;27;87967;-49
2023/06/26 05:20:22;;;;;;;1.40;0.77;;;;;;;;;;5084845;27;88661;-50
2023/06/26 05:22:51;;;;;;;0.67;0.60;;;;;;;;;;5085590;27;89120;-49
2023/06/26 05:25:21;;;;;;;1.20;0.70;;;;;;;;;;5084052;27;89068;-49
2023/06/26 05:27:51;;;;;;;1.53;0.73;;;;;;;;;;5087100;27;88824;-49
2023/06/26 05:30:20;;;;;;;3.60;1.10;;;;;;;;;;5085089;27;89810;-49
2023/06/26 05:32:49;;;;;;;1.40;0.90;;;;;;;;;;5084039;27;88446;-49
2023/06/26 05:35:17;;;;;;;2.60;0.80;;;;;;;;;;5083900;27;88901;-49
2023/06/26 05:37:46;;;;;;;0.97;0.40;;;;;;;;;;5085873;27;87570;-49
2023/06/26 05:40:15;;;;;;;2.37;0.70;;;;;;;;;;5083634;27;89867;-49
2023/06/26 05:42:44;;;;;;;0.57;0.50;;;;;;;;;;5091429;27;90322;-49
2023/06/26 05:45:14;;;;;;;3.63;0.60;;;;;;;;;;5095616;27;89974;-49
2023/06/26 05:47:42;;;;;;;2.37;1.00;;;;;;;;;;5092969;27;87716;-49
2023/06/26 05:50:11;;;;;;;0.70;0.50;;;;;;;;;;5086956;27;89772;-49
2023/06/26 05:52:40;;;;;;;0.87;0.60;;;;;;;;;;5085261;27;89312;-49
2023/06/26 05:55:09;;;;;;;0.97;0.60;;;;;;;;;;5091477;27;87870;-49
2023/06/26 05:57:37;;;;;;;4.40;0.60;;;;;;;;;;5101590;27;87736;-50
2023/06/26 06:00:10;;;;;;;1.10;0.50;;;;;;;;;;5099519;27;88482;-49
2023/06/26 06:02:41;;;;;;;2.57;0.90;;;;;;;;;;5080597;27;88229;-51
2023/06/26 06:05:09;;;;;;;2.27;0.83;;;;;;;;;;5077577;27;88755;-49
2023/06/26 06:07:38;;;;;;;1.17;0.60;;;;;;;;;;5076049;27;87775;-49
2023/06/26 06:10:07;;;;;;;1.47;0.50;;;;;;;;;;5097000;27;88750;-49
2023/06/26 06:12:36;;;;;;;1.17;0.50;;;;;;;;;;5068775;27;89117;-49
2023/06/26 06:15:04;;;;;;;1.10;0.50;;;;;;;;;;5067124;27;89016;-49
2023/06/26 06:17:33;;;;;;;4.53;0.73;;;;;;;;;;5104250;27;87591;-49
2023/06/26 06:20:03;;;;;;;1.60;0.47;;;;;;;;;;5101604;27;89732;-49
2023/06/26 06:22:31;;;;;;;1.43;0.63;;;;;;;;;;5103181;27;88206;-49
2023/06/26 06:25:00;;;;;;;0.50;0.50;;;;;;;;;;5101700;27;89002;-49
2023/06/26 06:27:29;;;;;;;1.47;0.60;;;;;;;;;;5101653;27;87602;-49
2023/06/26 06:29:57;;;;;;;4.97;0.70;;;;;;;;;;5086611;27;89497;-49
2023/06/26 06:32:25;;;;;;;0.93;0.40;;;;;;;;;;5082374;27;90244;-49
2023/06/26 06:34:54;;;;;;;0.90;0.53;;;;;;;;;;5083274;27;89711;-49
2023/06/26 06:37:24;;;;;;;0.97;0.50;;;;;;;;;;5077024;27;87723;-49
2023/06/26 06:39:52;;;;;;;1.17;0.57;;;;;;;;;;5076595;27;89994;-49
2023/06/26 06:42:20;;;;;;;1.07;0.57;;;;;;;;;;5082345;27;89132;-49
2023/06/26 06:44:49;;;;;;;1.07;0.60;;;;;;;;;;5082281;27;88981;-49
2023/06/26 06:47:17;;;;;;;1.53;0.60;;;;;;;;;;5092263;27;87728;-49
2023/06/26 06:49:45;;;;;;;1.17;0.67;;;;;;;;;;5103016;27;89834;-49
2023/06/26 06:52:14;;;;;;;1.50;0.87;;;;;;;;;;5090643;27;89205;-49
2023/06/26 06:54:58;;;;;;;1.00;0.57;;;;;;;;;;5097751;27;89010;-49
2023/06/26 06:57:27;;;;;;;1.80;1.03;;;;;;;;;;5102925;27;88709;-49
2023/06/26 06:59:55;;;;;;;4.57;0.57;;;;;;;;;;5094322;27;90000;-49
2023/06/26 07:02:23;;;;;;;2.03;0.50;;;;;;;;;;5081969;27;89267;-49
2023/06/26 07:04:52;;;;;;;0.67;0.47;;;;;;;;;;5080958;27;88892;-49
2023/06/26 07:07:20;;;;;;;1.23;0.70;;;;;;;;;;5082505;27;87511;-49
2023/06/26 07:09:49;;;;;;;0.53;0.33;;;;;;;;;;5082789;27;89769;-49
2023/06/26 07:12:18;;;;;;;1.47;0.50;;;;;;;;;;5081380;27;89273;-49
2023/06/26 07:14:47;;;;;;;3.07;0.80;;;;;;;;;;5102727;27;87934;-49
2023/06/26 07:17:15;;;;;;;1.23;0.43;;;;;;;;;;5102398;27;87600;-49
2023/06/26 07:19:44;;;;;;;1.63;0.53;;;;;;;;;;5102627;27;89804;-49
2023/06/26 07:22:12;;;;;;;1.57;0.53;;;;;;;;;;5102526;27;90144;-49
2023/06/26 07:24:40;;;;;;;0.93;0.40;;;;;;;;;;5091104;27;89632;-50
2023/06/26 07:27:09;;;;;;;1.70;0.50;;;;;;;;;;5086209;27;87625;-49
2023/06/26 07:29:39;;;;;;;1.57;0.50;;;;;;;;;;5102461;27;88716;-49
2023/06/26 07:32:07;;;;;;;3.57;0.40;;;;;;;;;;5102531;27;88030;-49
2023/06/26 07:34:36;;;;;;;1.00;0.40;;;;;;;;;;5102877;27;87300;-49
2023/06/26 07:37:04;;;;;;;2.00;0.87;;;;;;;;;;5102433;27;87431;-49
2023/06/26 07:39:33;;;;;;;0.57;0.30;;;;;;;;;;5094539;27;89797;-49
2023/06/26 07:42:01;;;;;;;1.90;0.37;;;;;;;;;;5082226;27;88942;-49
2023/06/26 07:44:30;;;;;;;1.00;0.50;;;;;;;;;;5078613;27;87868;-49
2023/06/26 07:47:00;;;;;;;2.40;0.50;;;;;;;;;;5076740;27;89065;-50
2023/06/26 07:49:28;;;;;;;0.40;0.40;;;;;;;;;;5071597;27;88704;-50
2023/06/26 07:51:57;;;;;;;0.43;0.30;;;;;;;;;;5083795;27;87960;-50
2023/06/26 07:54:25;;;;;;;0.83;0.50;;;;;;;;;;5096996;27;89030;-50
2023/06/26 07:56:54;;;;;;;1.10;0.40;;;;;;;;;;5061430;27;87689;-49
2023/06/26 07:59:23;;;;;;;1.83;0.50;;;;;;;;;;5099005;27;88583;-50
2023/06/26 08:01:51;;;;;;;0.43;0.43;;;;;;;;;;5093995;27;88233;-49
2023/06/26 08:04:21;;;;;;;10.70;0.67;;;;;;;;;;5081555;27;87662;-49
2023/06/26 08:06:50;;;;;;;1.27;0.40;;;;;;;;;;5082134;27;87554;-49
2023/06/26 08:09:19;;;;;;;1.70;0.50;;;;;;;;;;5080876;27;89775;-49
2023/06/26 08:11:48;;;;;;;1.57;0.77;;;;;;;;;;5081042;27;90561;-49
2023/06/26 08:14:16;;;;;;;0.77;0.40;;;;;;;;;;5081783;27;90036;-49
2023/06/26 08:16:45;;;;;;;0.53;0.43;;;;;;;;;;5082203;27;87667;-50
2023/06/26 08:19:13;;;;;;;0.90;0.60;;;;;;;;;;5081844;27;89836;-49
2023/06/26 08:21:43;;;;;;;0.80;0.60;;;;;;;;;;5080818;27;87985;-49
2023/06/26 08:24:12;;;;;;;0.60;0.37;;;;;;;;;;5081155;27;87780;-49
2023/06/26 08:26:41;;;;;;;0.67;0.40;;;;;;;;;;5082044;27;87063;-49
2023/06/26 08:29:09;;;;;;;2.30;0.60;;;;;;;;;;5081759;27;88660;-49
2023/06/26 08:31:40;;;;;;;0.93;0.53;;;;;;;;;;5081634;27;87833;-49
2023/06/26 08:34:08;;;;;;;0.67;0.50;;;;;;;;;;5081429;27;87668;-49
2023/06/26 08:36:37;;;;;;;0.57;0.37;;;;;;;;;;5081169;27;87902;-49
2023/06/26 08:39:08;;;;;;;0.83;0.50;;;;;;;;;;5080699;27;88265;-49
2023/06/26 08:41:36;;;;;;;0.43;0.37;;;;;;;;;;5080553;27;89161;-49
2023/06/26 08:44:05;;;;;;;2.40;0.43;;;;;;;;;;5081606;27;87724;-49
2023/06/26 08:46:34;;;;;;;2.53;0.50;;;;;;;;;;5081691;27;87282;-49
2023/06/26 08:49:03;;;;;;;0.93;0.53;;;;;;;;;;5081173;27;88641;-49
2023/06/26 08:51:32;;;;;;;1.23;0.50;;;;;;;;;;5080993;27;89212;-50
2023/06/26 08:54:00;;;;;;;3.33;0.40;;;;;;;;;;5081355;27;87705;-50
2023/06/26 08:56:33;;;;;;;2.60;0.60;;;;;;;;;;5080903;27;87621;-49
2023/06/26 08:59:02;;;;;;;1.20;0.40;;;;;;;;;;5080459;27;89764;-49
2023/06/26 09:01:30;;;;;;;3.20;0.50;;;;;;;;;;5080341;27;90131;-49
2023/06/26 09:03:59;;;;;;;0.90;0.77;;;;;;;;;;5080665;27;88692;-49
2023/06/26 09:06:28;;;;;;;1.97;0.77;;;;;;;;;;5081052;27;87649;-49
2023/06/26 09:08:56;;;;;;;1.30;0.57;;;;;;;;;;5080084;27;89950;-49
2023/06/26 09:11:25;;;;;;;2.40;0.77;;;;;;;;;;5080776;27;89215;-50
2023/06/26 09:13:55;;;;;;;1.27;0.50;;;;;;;;;;5080503;27;87605;-49
2023/06/26 09:16:27;;;;;;;2.23;0.40;;;;;;;;;;5081458;27;87080;-49
2023/06/26 09:18:57;;;;;;;1.17;0.60;;;;;;;;;;5081011;27;87676;-50
2023/06/26 09:21:26;;;;;;;0.57;0.50;;;;;;;;;;5080359;27;88040;-49
2023/06/26 09:23:54;;;;;;;0.50;0.50;;;;;;;;;;5080739;27;88914;-50
2023/06/26 09:26:23;;;;;;;0.77;0.77;;;;;;;;;;5080447;27;87855;-49
2023/06/26 09:28:51;;;;;;;0.50;0.50;;;;;;;;;;5084306;27;89793;-49
2023/06/26 09:31:21;;;;;;;1.37;0.77;;;;;;;;;;5083626;27;89100;-49
2023/06/26 09:34:08;;;;;;;0.90;0.60;;;;;;;;;;5083851;27;89388;-49
2023/06/26 09:36:37;;;;;;;0.63;0.40;;;;;;;;;;5083194;27;87701;-49
2023/06/26 09:39:10;;;;;;;0.83;0.50;;;;;;;;;;5083411;27;89608;-51
2023/06/26 09:41:40;;;;;;;1.30;0.40;;;;;;;;;;5085578;27;89308;-49
2023/06/26 09:44:08;;;;;;;0.83;0.60;;;;;;;;;;5086111;27;88858;-49
2023/06/26 09:46:39;;;;;;;0.70;0.60;;;;;;;;;;5084498;27;87703;-49
2023/06/26 09:49:08;;;;;;;4.00;0.50;;;;;;;;;;5084189;27;88596;-49
2023/06/26 09:51:37;;;;;;;0.40;0.40;;;;;;;;;;5083427;27;89001;-49
2023/06/26 09:54:05;;;;;;;1.93;0.53;;;;;;;;;;5083460;27;89811;-49
2023/06/26 09:56:34;;;;;;;4.40;0.67;;;;;;;;;;5083476;27;87690;-49
2023/06/26 09:59:03;;;;;;;0.73;0.60;;;;;;;;;;5083687;27;89647;-49
2023/06/26 10:01:31;;;;;;;3.47;0.90;;;;;;;;;;5083311;27;89156;-49
2023/06/26 10:04:02;;;;;;;0.50;0.50;;;;;;;;;;5083669;27;88913;-49
2023/06/26 10:06:35;;;;;;;1.70;0.70;;;;;;;;;;5084072;27;87620;-49
2023/06/26 10:09:04;;;;;;;2.63;0.83;;;;;;;;;;5084149;27;89713;-49
2023/06/26 10:11:34;;;;;;;0.50;0.50;;;;;;;;;;5083825;27;87939;-50
2023/06/26 10:14:03;;;;;;;1.73;0.50;;;;;;;;;;5083552;27;87803;-49
2023/06/26 10:16:45;;;;;;;1.17;0.60;;;;;;;;;;5083628;27;87775;-49
2023/06/26 10:19:15;;;;;;;0.93;0.40;;;;;;;;;;5083363;27;89663;-49
2023/06/26 10:21:43;;;;;;;2.63;0.63;;;;;;;;;;5082950;27;88092;-49
2023/06/26 10:24:12;;;;;;;1.03;0.70;;;;;;;;;;5083209;27;88841;-49
2023/06/26 10:26:40;;;;;;;0.63;0.50;;;;;;;;;;5083251;27;87662;-49
2023/06/26 10:29:09;;;;;;;2.27;0.60;;;;;;;;;;5083386;27;89522;-49
2023/06/26 10:31:37;;;;;;;1.83;0.80;;;;;;;;;;5082280;27;88212;-49
2023/06/26 10:34:06;;;;;;;1.43;0.40;;;;;;;;;;5083088;27;88828;-49
2023/06/26 10:36:36;;;;;;;1.13;0.30;;;;;;;;;;5083161;27;87659;-49
2023/06/26 10:39:06;;;;;;;0.40;0.40;;;;;;;;;;5081556;27;89920;-49
2023/06/26 10:41:38;;;;;;;7.00;1.00;;;;;;;;;;5081672;27;89018;-49
2023/06/26 10:44:18;;;;;;;1.80;0.50;;;;;;;;;;5083182;27;88705;-49
2023/06/26 10:46:50;;;;;;;0.80;0.30;;;;;;;;;;5082856;27;87623;-49
2023/06/26 10:49:18;;;;;;;0.83;0.30;;;;;;;;;;5082957;27;89636;-49
2023/06/26 10:51:51;;;;;;;0.33;0.30;;;;;;;;;;5082877;27;89093;-49
2023/06/26 10:54:20;;;;;;;1.00;0.40;;;;;;;;;;5083002;27;87665;-49
2023/06/26 10:56:49;;;;;;;0.47;0.40;;;;;;;;;;5083274;27;87638;-49
2023/06/26 10:59:18;;;;;;;0.23;0.23;;;;;;;;;;5083079;27;88505;-49
2023/06/26 11:01:48;;;;;;;4.10;0.70;;;;;;;;;;5082483;27;88721;-49
2023/06/26 11:04:17;;;;;;;4.20;0.50;;;;;;;;;;5081813;27;87796;-49
2023/06/26 11:06:47;;;;;;;0.93;0.40;;;;;;;;;;5082597;27;87925;-49
2023/06/26 11:09:19;;;;;;;0.47;0.47;;;;;;;;;;5082487;27;90040;-49
2023/06/26 11:11:59;;;;;;;2.43;0.40;;;;;;;;;;5082904;27;89400;-49
2023/06/26 11:14:27;;;;;;;0.63;0.40;;;;;;;;;;5082438;27;87369;-49
2023/06/26 11:16:59;;;;;;;0.73;0.53;;;;;;;;;;5082104;27;87348;-49
2023/06/26 11:19:28;;;;;;;0.53;0.53;;;;;;;;;;5081577;27;88638;-49
2023/06/26 11:22:00;;;;;;;0.93;0.60;;;;;;;;;;5082645;27;89237;-49
2023/06/26 11:24:31;;;;;;;0.70;0.23;;;;;;;;;;5082316;27;88891;-49
2023/06/26 11:27:03;;;;;;;0.30;0.30;;;;;;;;;;5081859;27;87740;-49
2023/06/26 11:29:33;;;;;;;6.83;1.17;;;;;;;;;;5082138;27;89567;-49
2023/06/26 11:32:02;;;;;;;7.40;0.87;;;;;;;;;;5081324;27;88761;-49
2023/06/26 11:34:33;;;;;;;14.03;2.47;;;;;;;;;;5082479;27;89893;-49
2023/06/26 11:37:02;;;;;;;11.17;1.20;;;;;;;;;;5082924;27;87559;-49
2023/06/26 11:39:32;;;;;;;5.23;1.00;;;;;;;;;;5081565;27;89859;-49
2023/06/26 11:42:01;;;;;;;3.97;1.00;;;;;;;;;;5081758;27;88137;-49
2023/06/26 11:44:32;;;;;;;3.33;0.67;;;;;;;;;;5082057;27;89120;-49
2023/06/26 11:47:01;;;;;;;1.10;0.70;;;;;;;;;;5081419;27;87618;-49
2023/06/26 11:49:31;;;;;;;3.87;1.00;;;;;;;;;;5082009;27;89846;-49
2023/06/26 11:51:59;;;;;;;2.20;0.53;;;;;;;;;;5080956;27;88286;-49
2023/06/26 11:54:28;;;;;;;2.83;0.70;;;;;;;;;;5081591;27;87593;-49
2023/06/26 11:56:58;;;;;;;1.07;0.70;;;;;;;;;;5081664;27;88015;-49
2023/06/26 11:59:34;;;;;;;1.70;0.50;;;;;;;;;;5085379;27;88576;-49
2023/06/26 12:02:02;;;;;;;4.77;1.30;;;;;;;;;;5088421;27;89227;-49
2023/06/26 12:04:31;;;;;;;9.07;1.50;;;;;;;;;;5081044;27;88660;-49
2023/06/26 12:06:59;;;;;;;3.17;1.30;;;;;;;;;;5081988;27;87371;-49
2023/06/26 12:09:28;;;;;;;9.27;1.33;;;;;;;;;;5081845;27;89605;-49
2023/06/26 12:11:59;;;;;;;8.47;2.07;;;;;;;;;;5081784;27;89150;-49
2023/06/26 12:14:28;;;;;;;4.93;1.03;;;;;;;;;;5082062;27;88655;-49
2023/06/26 12:16:57;;;;;;;4.27;0.90;;;;;;;;;;5081873;27;87669;-49
2023/06/26 12:19:26;;;;;;;4.80;1.03;;;;;;;;;;5081764;27;89832;-49
2023/06/26 12:21:56;;;;;;;2.53;0.90;;;;;;;;;;5080907;27;90476;-49
2023/06/26 12:24:25;;;;;;;3.93;0.83;;;;;;;;;;5081421;27;89828;-49
2023/06/26 12:26:56;;;;;;;7.83;1.10;;;;;;;;;;5082068;27;87661;-49
2023/06/26 12:29:33;;;;;;;3.63;1.30;;;;;;;;;;5081277;27;89625;-49
2023/06/26 12:32:02;;;;;;;1.40;0.70;;;;;;;;;;5081844;27;88998;-49
2023/06/26 12:34:30;;;;;;;1.83;0.70;;;;;;;;;;5081542;27;88871;-49
2023/06/26 12:37:01;;;;;;;1.80;0.90;;;;;;;;;;5081039;27;87595;-49
2023/06/26 12:39:29;;;;;;;1.80;0.67;;;;;;;;;;5081437;27;88514;-49
2023/06/26 12:41:59;;;;;;;1.17;0.60;;;;;;;;;;5081119;27;89450;-49
2023/06/26 12:44:30;;;;;;;2.87;0.60;;;;;;;;;;5081033;27;88786;-49
2023/06/26 12:47:00;;;;;;;0.50;0.50;;;;;;;;;;5080816;27;87901;-49
2023/06/26 12:49:33;;;;;;;1.40;0.80;;;;;;;;;;5081116;27;89776;-49
2023/06/26 12:52:01;;;;;;;5.37;0.60;;;;;;;;;;5081495;27;91538;-49
2023/06/26 12:54:30;;;;;;;2.77;0.63;;;;;;;;;;5081045;27;88871;-50
2023/06/26 12:56:59;;;;;;;0.77;0.57;;;;;;;;;;5081420;27;87632;-49
2023/06/26 12:59:27;;;;;;;1.77;0.50;;;;;;;;;;5080325;27;88420;-49
2023/06/26 13:01:56;;;;;;;1.10;0.40;;;;;;;;;;5082132;27;89464;-49
2023/06/26 13:04:26;;;;;;;1.20;0.73;;;;;;;;;;5085044;27;87957;-49
2023/06/26 13:06:55;;;;;;;0.73;0.50;;;;;;;;;;5084756;27;87646;-49
2023/06/26 13:09:24;;;;;;;3.23;0.50;;;;;;;;;;5084408;27;89789;-49
2023/06/26 13:11:53;;;;;;;1.17;0.50;;;;;;;;;;5084311;27;90227;-49
2023/06/26 13:14:22;;;;;;;1.03;0.43;;;;;;;;;;5084332;27;88433;-49
2023/06/26 13:16:50;;;;;;;2.03;0.50;;;;;;;;;;5084768;27;87629;-49
2023/06/26 13:19:18;;;;;;;1.63;0.67;;;;;;;;;;5084624;27;88601;-50
2023/06/26 13:21:48;;;;;;;0.70;0.40;;;;;;;;;;5083711;27;88124;-50
2023/06/26 13:24:17;;;;;;;0.83;0.50;;;;;;;;;;5084347;27;88672;-49
2023/06/26 13:26:45;;;;;;;0.63;0.40;;;;;;;;;;5084730;27;87781;-50
2023/06/26 13:29:14;;;;;;;0.40;0.40;;;;;;;;;;5084570;27;89597;-49
2023/06/26 13:31:42;;;;;;;0.87;0.50;;;;;;;;;;5084746;27;89485;-49
2023/06/26 13:34:11;;;;;;;0.37;0.37;;;;;;;;;;5084744;27;88825;-49
2023/06/26 13:36:39;;;;;;;1.70;0.53;;;;;;;;;;5083665;27;87783;-49
2023/06/26 13:39:09;;;;;;;2.37;0.60;;;;;;;;;;5083291;27;89770;-49
2023/06/26 13:41:37;;;;;;;2.07;0.77;;;;;;;;;;5083584;27;88246;-49
2023/06/26 13:44:05;;;;;;;1.17;0.50;;;;;;;;;;5083942;27;88913;-49
2023/06/26 13:46:47;;;;;;;1.07;0.50;;;;;;;;;;5083245;27;87566;-49
2023/06/26 13:49:15;;;;;;;0.20;0.20;;;;;;;;;;5084078;27;89731;-49
2023/06/26 13:51:46;;;;;;;0.87;0.87;;;;;;;;;;5083819;27;88009;-49
2023/06/26 13:54:18;;;;;;;1.10;0.60;;;;;;;;;;5084450;27;88895;-49
2023/06/26 13:56:46;;;;;;;2.47;0.93;;;;;;;;;;5083673;27;88447;-49
2023/06/26 13:59:15;;;;;;;1.43;0.80;;;;;;;;;;5083279;27;88545;-49
2023/06/26 14:01:43;;;;;;;1.23;0.70;;;;;;;;;;5082944;27;89932;-49
2023/06/26 14:04:12;;;;;;;1.43;0.70;;;;;;;;;;5083428;27;87498;-49
2023/06/26 14:06:41;;;;;;;1.00;0.73;;;;;;;;;;5084153;27;87626;-49
2023/06/26 14:09:10;;;;;;;1.10;0.63;;;;;;;;;;5083793;27;89542;-49
2023/06/26 14:11:40;;;;;;;1.97;0.77;;;;;;;;;;5082538;27;88174;-49
2023/06/26 14:14:08;;;;;;;1.33;0.67;;;;;;;;;;5083629;27;88780;-49
2023/06/26 14:16:37;;;;;;;1.17;0.90;;;;;;;;;;5083897;27;87534;-49
2023/06/26 14:19:05;;;;;;;2.33;1.00;;;;;;;;;;5083821;27;89926;-49
2023/06/26 14:21:34;;;;;;;3.00;0.90;;;;;;;;;;5083140;27;89279;-49
2023/06/26 14:24:03;;;;;;;1.07;0.80;;;;;;;;;;5083382;27;89037;-50
2023/06/26 14:26:32;;;;;;;0.57;0.53;;;;;;;;;;5082663;27;87889;-49
2023/06/26 14:29:02;;;;;;;1.30;1.00;;;;;;;;;;5083087;27;88527;-49
2023/06/26 14:31:30;;;;;;;2.90;0.90;;;;;;;;;;5083401;27;89257;-49
2023/06/26 14:33:59;;;;;;;1.30;0.87;;;;;;;;;;5083598;27;88468;-49
2023/06/26 14:36:27;;;;;;;1.90;0.77;;;;;;;;;;5082716;27;87627;-49
2023/06/26 14:38:56;;;;;;;0.73;0.70;;;;;;;;;;5082731;27;88836;-49
2023/06/26 14:41:25;;;;;;;1.37;0.77;;;;;;;;;;5083879;27;89022;-49
2023/06/26 14:43:54;;;;;;;1.13;0.90;;;;;;;;;;5083482;27;88779;-49
2023/06/26 14:46:24;;;;;;;0.67;0.67;;;;;;;;;;5083144;27;87689;-49
2023/06/26 14:48:55;;;;;;;2.67;0.80;;;;;;;;;;5082781;27;88571;-49
2023/06/26 14:51:25;;;;;;;1.80;1.00;;;;;;;;;;5082240;27;90233;-49
2023/06/26 14:53:55;;;;;;;1.10;1.00;;;;;;;;;;5083232;27;88722;-49